Time;durP1;ratioP1;P1;durP2;ratioP2;P2;SDS_P1;SDS_P2;PMS_P1;PMS_P2;Temp;Humidity;BMP_temperature;BMP_pressure;BME280_temperature;BME280_humidity;BME280_pressure;Samples;Min_cycle;Max_cycle;Signal;HPM_P1;HPM_P2
2022/07/21 00:00:07;;;;;;;19.55;13.82;;;20.60;99.90;;;;;;4953788;28;20456;-66
2022/07/21 00:02:32;;;;;;;18.42;13.75;;;20.60;99.90;;;;;;4968517;28;20047;-66
2022/07/21 00:04:58;;;;;;;18.08;13.55;;;20.60;99.90;;;;;;4965495;28;20043;-66
2022/07/21 00:07:24;;;;;;;18.70;13.43;;;20.60;99.90;;;;;;4956482;28;20094;-66
2022/07/21 00:09:49;;;;;;;20.73;13.25;;;20.60;99.90;;;;;;4953781;28;20184;-66
2022/07/21 00:12:15;;;;;;;20.63;13.25;;;20.60;99.90;;;;;;4959363;28;20031;-66
2022/07/21 00:14:41;;;;;;;22.23;14.07;;;20.60;99.90;;;;;;4954190;28;20035;-66
2022/07/21 00:17:06;;;;;;;20.80;14.05;;;20.50;99.90;;;;;;4953698;28;20058;-66
2022/07/21 00:19:32;;;;;;;22.02;13.77;;;20.60;99.90;;;;;;4953981;29;20506;-66
2022/07/21 00:21:58;;;;;;;19.33;14.32;;;20.50;99.90;;;;;;4956832;28;20507;-66
2022/07/21 00:24:24;;;;;;;16.65;12.68;;;20.40;99.90;;;;;;4953591;28;20122;-66
2022/07/21 00:26:49;;;;;;;17.48;13.73;;;20.40;99.90;;;;;;4953563;28;20039;-66
2022/07/21 00:29:15;;;;;;;19.73;14.68;;;20.30;99.90;;;;;;4956657;28;20039;-66
2022/07/21 00:31:41;;;;;;;22.88;15.38;;;20.20;99.90;;;;;;4956354;28;20086;-66
2022/07/21 00:34:06;;;;;;;23.25;14.73;;;20.20;99.90;;;;;;4953413;28;20043;-66
2022/07/21 00:36:32;;;;;;;22.85;15.48;;;20.20;99.90;;;;;;4936291;29;20503;-66
2022/07/21 00:38:58;;;;;;;24.95;16.27;;;20.20;99.90;;;;;;4965807;28;20042;-66
2022/07/21 00:41:24;;;;;;;21.92;16.10;;;20.20;99.90;;;;;;4952745;28;20042;-66
2022/07/21 00:43:49;;;;;;;25.40;15.40;;;20.10;99.90;;;;;;4952963;29;20400;-66
2022/07/21 00:46:15;;;;;;;25.75;16.60;;;20.10;99.90;;;;;;4977781;28;20035;-66
2022/07/21 00:48:41;;;;;;;22.45;16.05;;;20.20;99.90;;;;;;4962847;28;20039;-66
2022/07/21 00:51:06;;;;;;;25.33;16.02;;;20.20;99.90;;;;;;4953038;28;20040;-66
2022/07/21 00:53:32;;;;;;;21.17;15.15;;;20.20;99.90;;;;;;4951538;28;20073;-66
2022/07/21 00:55:59;;;;;;;22.67;15.45;;;20.20;99.90;;;;;;4958403;28;20093;-67
2022/07/21 00:58:25;;;;;;;23.33;15.23;;;20.20;99.90;;;;;;4952488;28;20043;-66
2022/07/21 01:00:51;;;;;;;21.65;15.73;;;20.20;99.90;;;;;;4951809;28;20559;-66
2022/07/21 01:03:16;;;;;;;22.95;15.45;;;20.20;99.90;;;;;;4960462;28;20122;-65
2022/07/21 01:05:42;;;;;;;24.30;16.58;;;20.20;99.90;;;;;;4952698;28;20110;-65
2022/07/21 01:08:08;;;;;;;21.40;16.20;;;20.20;99.90;;;;;;4953153;29;20388;-65
2022/07/21 01:10:34;;;;;;;21.33;15.20;;;20.20;99.90;;;;;;4964111;28;20496;-65
2022/07/21 01:13:00;;;;;;;24.23;15.98;;;20.20;99.90;;;;;;4954072;28;20065;-65
2022/07/21 01:15:26;;;;;;;23.90;15.80;;;20.20;99.90;;;;;;4952834;28;20650;-65
2022/07/21 01:17:52;;;;;;;26.65;16.40;;;20.20;99.90;;;;;;4950708;28;20565;-65
2022/07/21 01:20:21;;;;;;;21.30;15.73;;;20.10;99.90;;;;;;4955604;28;20444;-66
2022/07/21 01:22:49;;;;;;;21.52;15.82;;;20.10;99.90;;;;;;4952300;28;20074;-66
2022/07/21 01:25:17;;;;;;;26.05;16.23;;;20.20;99.90;;;;;;4952870;29;20122;-66
2022/07/21 01:27:43;;;;;;;25.27;15.88;;;20.10;99.90;;;;;;4942514;28;20632;-66
2022/07/21 01:30:10;;;;;;;23.83;15.55;;;20.10;99.90;;;;;;4952259;28;20042;-66
2022/07/21 01:32:39;;;;;;;22.95;15.18;;;20.10;99.90;;;;;;4935337;29;20089;-66
2022/07/21 01:35:09;;;;;;;26.58;15.80;;;20.10;99.90;;;;;;4939640;28;20059;-66
2022/07/21 01:37:38;;;;;;;22.00;16.02;;;20.10;99.90;;;;;;4969531;28;20066;-66
2022/07/21 01:42:51;;;;;;;28.60;17.83;;;20.10;99.90;;;;;;4952156;29;20043;-66
2022/07/21 01:45:17;;;;;;;24.25;17.00;;;20.00;99.90;;;;;;4960553;28;20106;-66
2022/07/21 01:47:43;;;;;;;24.98;15.70;;;20.00;99.90;;;;;;4960016;28;20118;-66
2022/07/21 01:50:10;;;;;;;27.52;16.67;;;20.00;99.90;;;;;;4935111;29;20484;-66
2022/07/21 01:52:35;;;;;;;25.38;15.88;;;20.00;99.90;;;;;;4953499;28;20039;-66
2022/07/21 01:55:01;;;;;;;24.58;15.77;;;19.90;99.90;;;;;;4952867;28;20462;-66
2022/07/21 01:57:27;;;;;;;24.58;15.77;;;19.80;99.90;;;;;;4952293;29;20130;-66
2022/07/21 01:59:53;;;;;;;21.63;15.52;;;19.80;99.90;;;;;;4954633;28;20069;-65
2022/07/21 02:02:20;;;;;;;19.20;14.18;;;19.80;99.90;;;;;;4956213;28;20078;-65
2022/07/21 02:04:47;;;;;;;24.25;15.25;;;19.80;99.90;;;;;;4952026;28;20053;-66
2022/07/21 02:07:14;;;;;;;22.42;15.73;;;19.80;99.90;;;;;;4951641;28;20035;-67
2022/07/21 02:09:39;;;;;;;23.58;14.98;;;19.80;99.90;;;;;;4957752;28;20047;-66
2022/07/21 02:12:05;;;;;;;20.50;14.43;;;19.80;99.90;;;;;;4952831;28;20035;-66
2022/07/21 02:14:31;;;;;;;22.40;15.20;;;19.80;99.90;;;;;;4952297;29;20051;-66
2022/07/21 02:16:57;;;;;;;23.05;15.32;;;19.80;99.90;;;;;;4952202;29;20039;-66
2022/07/21 02:19:22;;;;;;;23.48;16.13;;;19.70;99.90;;;;;;4950398;28;20110;-66
2022/07/21 02:21:48;;;;;;;22.20;15.90;;;19.70;99.90;;;;;;4955121;28;20644;-66
2022/07/21 02:24:14;;;;;;;20.55;15.13;;;19.70;99.90;;;;;;4951455;28;20066;-66
2022/07/21 02:26:40;;;;;;;28.50;15.75;;;19.70;99.90;;;;;;4969254;28;20093;-66
2022/07/21 02:29:05;;;;;;;19.33;14.60;;;19.80;99.90;;;;;;4957046;28;20039;-66
2022/07/21 02:31:31;;;;;;;23.25;15.48;;;19.70;99.90;;;;;;4955644;29;20051;-66
2022/07/21 02:33:57;;;;;;;21.33;15.07;;;19.70;99.90;;;;;;4956593;28;20069;-66
2022/07/21 02:36:22;;;;;;;18.45;14.13;;;19.70;99.90;;;;;;4960767;28;20078;-66
2022/07/21 02:38:49;;;;;;;18.73;14.27;;;19.60;99.90;;;;;;4955577;28;20046;-66
2022/07/21 02:41:15;;;;;;;20.77;15.07;;;19.60;99.90;;;;;;4958955;28;20039;-66
2022/07/21 02:43:40;;;;;;;20.35;14.90;;;19.60;99.90;;;;;;4965922;28;20028;-66
2022/07/21 02:46:06;;;;;;;19.95;15.00;;;19.50;99.90;;;;;;4955273;28;20065;-66
2022/07/21 02:48:31;;;;;;;20.90;14.95;;;19.40;99.90;;;;;;4938620;29;20054;-65
2022/07/21 02:50:57;;;;;;;22.40;15.77;;;19.40;99.90;;;;;;4952802;28;20039;-66
2022/07/21 02:53:23;;;;;;;22.20;16.02;;;19.20;99.90;;;;;;4962265;28;20038;-66
2022/07/21 02:55:51;;;;;;;23.80;16.50;;;19.20;99.90;;;;;;4955112;28;20047;-66
2022/07/21 02:58:29;;;;;;;25.83;16.85;;;19.20;99.90;;;;;;4959521;28;20381;-66
2022/07/21 03:01:00;;;;;;;22.23;15.98;;;19.20;99.90;;;;;;4960203;28;20401;-66
2022/07/21 03:03:28;;;;;;;23.55;17.40;;;19.20;99.90;;;;;;4937604;29;20476;-66
2022/07/21 03:05:54;;;;;;;26.52;18.27;;;19.20;99.90;;;;;;4959820;28;20056;-66
2022/07/21 03:08:20;;;;;;;29.27;19.98;;;19.20;99.90;;;;;;4976963;28;20410;-66
2022/07/21 03:10:46;;;;;;;31.70;20.45;;;19.20;99.90;;;;;;4960992;28;20304;-65
2022/07/21 03:13:12;;;;;;;33.00;22.02;;;19.20;99.90;;;;;;4954073;28;20039;-66
2022/07/21 03:15:38;;;;;;;32.42;21.17;;;19.20;99.90;;;;;;4965944;28;20045;-66
2022/07/21 03:18:04;;;;;;;32.20;21.38;;;19.10;99.90;;;;;;4963507;28;20036;-66
2022/07/21 03:20:33;;;;;;;31.90;21.80;;;19.10;99.90;;;;;;4955022;28;20161;-66
2022/07/21 03:22:59;;;;;;;28.73;21.25;;;19.10;99.90;;;;;;4959938;28;20060;-65
2022/07/21 03:25:25;;;;;;;34.95;22.25;;;19.10;99.90;;;;;;4949277;28;20042;-66
2022/07/21 03:27:51;;;;;;;32.50;22.35;;;19.10;99.90;;;;;;4940939;29;20047;-66
2022/07/21 03:30:17;;;;;;;32.38;22.88;;;19.10;99.90;;;;;;4954227;28;20558;-66
2022/07/21 03:32:44;;;;;;;31.70;23.20;;;19.10;99.90;;;;;;4954821;28;20087;-66
2022/07/21 03:35:10;;;;;;;29.92;23.25;;;19.10;99.90;;;;;;4959952;28;20039;-66
2022/07/21 03:38:01;;;;;;;32.72;23.63;;;19.00;99.90;;;;;;4953122;28;20050;-66
2022/07/21 03:40:30;;;;;;;31.60;22.73;;;19.00;99.90;;;;;;4954405;29;20040;-66
2022/07/21 03:42:57;;;;;;;31.85;22.83;;;19.00;99.90;;;;;;4957681;28;20039;-66
2022/07/21 03:45:24;;;;;;;33.30;23.23;;;19.00;99.90;;;;;;4971128;28;20047;-66
2022/07/21 03:47:50;;;;;;;31.27;23.92;;;19.00;99.90;;;;;;4954276;28;20047;-66
2022/07/21 03:50:17;;;;;;;33.15;23.27;;;19.00;99.90;;;;;;4960584;28;20028;-66
2022/07/21 03:52:44;;;;;;;35.00;24.67;;;19.00;99.90;;;;;;4958529;28;20073;-65
2022/07/21 03:55:10;;;;;;;34.95;25.77;;;19.00;99.90;;;;;;4965744;28;20067;-65
2022/07/21 03:57:46;;;;;;;35.90;26.83;;;19.00;99.90;;;;;;4952286;28;20454;-65
2022/07/21 04:00:15;;;;;;;38.60;27.60;;;19.00;99.90;;;;;;4953353;29;20035;-65
2022/07/21 04:02:44;;;;;;;39.42;27.92;;;19.00;99.90;;;;;;4945595;28;20039;-65
2022/07/21 04:05:13;;;;;;;37.83;27.33;;;19.00;99.90;;;;;;4956812;28;20524;-65
2022/07/21 04:07:41;;;;;;;34.53;26.67;;;19.00;99.90;;;;;;4975068;28;20039;-65
2022/07/21 04:10:08;;;;;;;37.63;27.00;;;19.00;99.90;;;;;;4952938;28;20043;-65
2022/07/21 04:12:34;;;;;;;33.83;26.48;;;19.10;99.90;;;;;;4956087;28;20045;-65
2022/07/21 04:15:00;;;;;;;38.90;27.25;;;19.10;99.90;;;;;;4958089;28;20114;-65
2022/07/21 04:17:26;;;;;;;34.35;25.95;;;19.10;99.90;;;;;;4951207;28;20035;-66
2022/07/21 04:19:51;;;;;;;37.55;26.15;;;19.10;99.90;;;;;;4940781;28;20487;-65
2022/07/21 04:22:17;;;;;;;37.00;26.23;;;19.10;99.90;;;;;;4963448;28;20114;-65
2022/07/21 04:24:43;;;;;;;37.28;26.83;;;19.10;99.90;;;;;;4960448;28;20035;-65
2022/07/21 04:27:08;;;;;;;37.63;26.67;;;19.10;99.90;;;;;;4953664;28;20050;-66
2022/07/21 04:29:34;;;;;;;38.30;27.17;;;19.10;99.90;;;;;;4957944;28;20093;-66
2022/07/21 04:32:00;;;;;;;39.50;27.85;;;19.10;99.90;;;;;;4960659;28;20051;-66
2022/07/21 04:34:27;;;;;;;38.92;27.33;;;19.10;99.90;;;;;;4956171;28;20045;-67
2022/07/21 04:36:52;;;;;;;40.47;28.25;;;19.20;99.90;;;;;;4948614;28;20086;-66
2022/07/21 04:39:18;;;;;;;36.63;27.55;;;19.20;99.90;;;;;;4946617;28;20101;-66
2022/07/21 04:41:44;;;;;;;38.28;27.90;;;19.30;99.90;;;;;;4955219;28;20094;-66
2022/07/21 04:44:09;;;;;;;40.80;27.90;;;19.30;99.90;;;;;;4962404;28;20034;-66
2022/07/21 04:46:35;;;;;;;40.03;27.92;;;19.30;99.90;;;;;;4955022;28;20492;-66
2022/07/21 04:49:00;;;;;;;40.45;28.70;;;19.20;99.90;;;;;;4952628;28;20118;-66
2022/07/21 04:51:26;;;;;;;40.30;28.40;;;19.20;99.90;;;;;;4951047;28;20039;-66
2022/07/21 04:53:52;;;;;;;42.47;28.30;;;19.30;99.90;;;;;;4958424;28;20067;-66
2022/07/21 04:56:17;;;;;;;42.65;29.08;;;19.30;99.90;;;;;;4942961;28;20114;-66
2022/07/21 04:58:43;;;;;;;42.55;29.90;;;19.30;99.90;;;;;;4944821;28;20046;-66
2022/07/21 05:01:08;;;;;;;40.25;29.40;;;19.30;99.90;;;;;;4939573;28;20035;-66
2022/07/21 05:03:34;;;;;;;43.47;29.63;;;19.40;99.90;;;;;;4964704;28;20067;-66
2022/07/21 05:06:00;;;;;;;39.58;30.13;;;19.40;99.90;;;;;;4965645;28;20471;-66
2022/07/21 05:08:27;;;;;;;46.47;31.65;;;19.50;99.90;;;;;;4946435;28;20043;-66
2022/07/21 05:10:52;;;;;;;42.25;29.92;;;19.50;99.90;;;;;;4949498;28;20082;-66
2022/07/21 05:13:18;;;;;;;44.55;31.20;;;19.50;99.90;;;;;;4958059;28;20069;-66
2022/07/21 05:15:44;;;;;;;36.92;28.92;;;19.50;99.90;;;;;;4944491;28;20039;-66
2022/07/21 05:18:09;;;;;;;36.58;27.15;;;19.50;99.90;;;;;;4952509;28;20031;-66
2022/07/21 05:20:35;;;;;;;37.40;26.80;;;19.40;99.90;;;;;;4952638;28;20063;-66
2022/07/21 05:23:01;;;;;;;34.30;26.50;;;19.40;99.90;;;;;;4955386;28;20455;-66
2022/07/21 05:25:28;;;;;;;39.10;27.83;;;19.40;99.90;;;;;;4952691;29;20094;-66
2022/07/21 05:27:54;;;;;;;35.90;26.98;;;19.50;99.90;;;;;;4952817;28;20038;-66
2022/07/21 05:30:20;;;;;;;32.92;26.50;;;19.50;99.90;;;;;;4958844;28;20049;-66
2022/07/21 05:32:46;;;;;;;35.88;26.10;;;19.50;99.90;;;;;;4948605;28;20496;-66
2022/07/21 05:35:12;;;;;;;34.25;25.75;;;19.50;99.90;;;;;;4952806;29;20397;-67
2022/07/21 05:37:39;;;;;;;33.30;25.77;;;19.50;99.90;;;;;;4955167;28;20035;-67
2022/07/21 05:40:06;;;;;;;33.13;24.25;;;19.60;99.90;;;;;;4936576;28;20043;-66
2022/07/21 05:42:32;;;;;;;30.83;23.65;;;19.70;99.90;;;;;;4952175;29;20070;-66
2022/07/21 05:44:58;;;;;;;30.02;23.13;;;19.70;99.90;;;;;;4955028;28;20064;-69
2022/07/21 05:47:24;;;;;;;30.45;23.45;;;19.80;99.90;;;;;;4945228;28;20043;-66
2022/07/21 05:49:49;;;;;;;30.48;22.80;;;19.90;99.90;;;;;;4952242;28;20042;-67
2022/07/21 05:52:15;;;;;;;31.85;23.52;;;20.10;99.90;;;;;;4952134;28;20512;-66
2022/07/21 05:54:41;;;;;;;31.73;24.35;;;20.20;99.90;;;;;;4952368;28;20046;-66
2022/07/21 05:57:06;;;;;;;35.85;24.35;;;20.30;99.90;;;;;;4953050;28;20046;-67
2022/07/21 05:59:33;;;;;;;33.95;23.90;;;20.30;99.90;;;;;;4951524;28;20035;-67
2022/07/21 06:01:58;;;;;;;30.85;22.95;;;20.20;99.90;;;;;;4953734;28;20423;-66
2022/07/21 06:04:24;;;;;;;31.98;23.88;;;20.20;99.90;;;;;;4952536;28;20039;-64
2022/07/21 06:06:50;;;;;;;32.28;23.70;;;20.10;99.90;;;;;;4954432;28;20038;-72
2022/07/21 06:09:16;;;;;;;34.83;23.88;;;20.00;99.90;;;;;;4956809;28;20038;-67
2022/07/21 06:11:41;;;;;;;32.85;24.52;;;20.00;99.90;;;;;;4947889;28;20109;-65
2022/07/21 06:14:07;;;;;;;32.13;22.90;;;20.00;99.90;;;;;;4969293;28;20074;-69
2022/07/21 06:16:32;;;;;;;32.17;23.83;;;19.80;99.90;;;;;;4972293;28;20124;-66
2022/07/21 06:18:58;;;;;;;33.53;24.48;;;19.90;99.90;;;;;;4940664;28;20074;-67
2022/07/21 06:21:24;;;;;;;33.97;24.35;;;19.80;99.90;;;;;;4959725;28;20070;-66
2022/07/21 06:23:49;;;;;;;32.28;23.60;;;19.80;99.90;;;;;;4945003;28;20038;-66
2022/07/21 06:26:15;;;;;;;33.20;24.02;;;19.70;99.90;;;;;;4942867;28;20672;-66
2022/07/21 06:28:41;;;;;;;33.72;24.63;;;19.70;99.90;;;;;;4938207;29;20035;-66
2022/07/21 06:31:07;;;;;;;34.42;25.92;;;19.70;99.90;;;;;;4935453;28;20047;-66
2022/07/21 06:33:32;;;;;;;33.28;24.85;;;19.70;99.90;;;;;;4972497;28;20042;-66
2022/07/21 06:35:58;;;;;;;38.47;27.20;;;19.80;99.90;;;;;;4954614;28;20043;-66
2022/07/21 06:38:23;;;;;;;36.70;26.42;;;19.90;99.90;;;;;;4949094;28;20554;-66
2022/07/21 06:40:49;;;;;;;39.60;25.73;;;19.80;99.90;;;;;;4959162;28;20122;-65
2022/07/21 06:43:15;;;;;;;37.58;27.08;;;19.90;99.90;;;;;;4952419;28;20170;-65
2022/07/21 06:45:40;;;;;;;36.72;27.02;;;20.00;99.90;;;;;;4934610;28;20404;-66
2022/07/21 06:48:08;;;;;;;39.67;28.08;;;20.00;99.90;;;;;;4971159;28;20129;-65
2022/07/21 06:50:35;;;;;;;38.85;27.65;;;20.10;99.90;;;;;;4951920;28;20035;-65
2022/07/21 06:53:01;;;;;;;40.72;28.20;;;20.20;99.90;;;;;;4966331;28;20039;-66
2022/07/21 06:55:27;;;;;;;40.90;28.80;;;20.30;99.90;;;;;;4965608;28;20065;-67
2022/07/21 06:57:53;;;;;;;34.38;26.02;;;20.50;99.90;;;;;;4951952;28;20754;-66
2022/07/21 07:00:20;;;;;;;35.05;27.40;;;20.60;99.90;;;;;;4942152;28;20050;-67
2022/07/21 07:02:45;;;;;;;38.17;27.45;;;20.60;99.90;;;;;;4957238;28;20058;-66
2022/07/21 07:05:11;;;;;;;35.50;27.55;;;20.60;99.90;;;;;;4937592;29;20047;-66
2022/07/21 07:07:37;;;;;;;36.10;27.33;;;20.50;99.90;;;;;;4953666;28;20400;-66
2022/07/21 07:10:03;;;;;;;35.25;27.52;;;20.50;99.90;;;;;;4955695;28;20039;-66
2022/07/21 07:12:29;;;;;;;37.50;28.08;;;20.60;99.90;;;;;;4954180;28;20495;-66
2022/07/21 07:14:54;;;;;;;39.40;27.50;;;20.50;99.90;;;;;;4937951;29;20053;-66
2022/07/21 07:17:20;;;;;;;36.13;27.63;;;20.70;99.90;;;;;;4961418;28;20043;-67
2022/07/21 07:19:47;;;;;;;43.42;29.75;;;20.90;99.90;;;;;;4965347;28;20039;-66
2022/07/21 07:22:12;;;;;;;40.58;28.77;;;21.30;99.90;;;;;;4954375;28;20043;-66
2022/07/21 07:24:38;;;;;;;43.58;29.63;;;21.60;99.90;;;;;;4954813;28;20047;-66
2022/07/21 07:27:04;;;;;;;37.33;28.10;;;21.90;99.90;;;;;;4960872;28;20047;-66
2022/07/21 07:29:31;;;;;;;42.35;29.55;;;22.10;99.90;;;;;;4949349;28;20039;-66
2022/07/21 07:31:57;;;;;;;36.50;27.63;;;22.20;99.90;;;;;;4954115;28;20042;-66
2022/07/21 07:34:23;;;;;;;37.60;28.58;;;22.20;99.90;;;;;;4954407;29;20039;-67
2022/07/21 07:36:49;;;;;;;37.47;27.90;;;22.10;99.90;;;;;;4943665;28;20106;-67
2022/07/21 07:39:18;;;;;;;36.35;27.98;;;22.40;99.90;;;;;;4954243;28;20168;-66
2022/07/21 07:41:44;;;;;;;34.08;26.83;;;22.60;99.90;;;;;;4966816;28;20045;-67
2022/07/21 07:44:10;;;;;;;35.90;27.83;;;22.60;99.90;;;;;;4968224;28;20046;-67
2022/07/21 07:46:36;;;;;;;33.28;26.45;;;22.50;99.90;;;;;;4954019;28;20464;-66
2022/07/21 07:49:02;;;;;;;33.78;26.00;;;22.10;99.90;;;;;;4943177;28;20039;-67
2022/07/21 07:51:28;;;;;;;35.38;26.38;;;22.00;99.90;;;;;;4973167;28;20167;-66
2022/07/21 07:53:53;;;;;;;29.48;23.95;;;21.90;99.90;;;;;;4962197;28;20083;-66
2022/07/21 07:56:19;;;;;;;32.35;25.50;;;21.90;99.90;;;;;;4959737;28;20035;-66
2022/07/21 07:58:45;;;;;;;33.10;26.98;;;21.80;99.90;;;;;;4957727;28;20090;-66
2022/07/21 08:01:10;;;;;;;32.15;25.25;;;21.50;99.90;;;;;;4962005;28;20030;-66
2022/07/21 08:03:36;;;;;;;34.13;25.85;;;21.50;99.90;;;;;;4957816;28;20650;-67
2022/07/21 08:06:03;;;;;;;37.45;26.20;;;21.50;99.90;;;;;;4954093;28;20046;-66
2022/07/21 08:08:30;;;;;;;35.72;27.40;;;21.70;99.90;;;;;;4954120;28;20078;-66
2022/07/21 08:10:56;;;;;;;33.33;24.88;;;21.90;99.90;;;;;;4965731;28;20126;-66
2022/07/21 08:13:22;;;;;;;35.95;25.35;;;22.00;99.90;;;;;;4960953;28;20118;-66
2022/07/21 08:15:49;;;;;;;32.17;25.35;;;22.10;99.90;;;;;;4963895;28;20069;-66
2022/07/21 08:18:16;;;;;;;31.83;23.40;;;21.90;99.90;;;;;;4958749;28;20446;-67
2022/07/21 08:20:43;;;;;;;30.05;23.98;;;22.00;99.90;;;;;;4958304;28;20046;-67
2022/07/21 08:23:10;;;;;;;33.35;24.58;;;21.80;99.90;;;;;;4936018;28;20519;-68
2022/07/21 08:25:35;;;;;;;32.45;24.65;;;21.80;99.90;;;;;;4943339;28;20063;-67
2022/07/21 08:28:01;;;;;;;31.75;25.13;;;21.80;99.90;;;;;;4939471;28;20078;-67
2022/07/21 08:30:27;;;;;;;33.15;24.45;;;21.80;99.90;;;;;;4954620;28;20039;-67
2022/07/21 08:32:52;;;;;;;36.38;25.92;;;21.80;99.90;;;;;;4954113;28;20054;-66
2022/07/21 08:35:18;;;;;;;31.13;24.13;;;21.80;99.90;;;;;;4964107;28;20050;-67
2022/07/21 08:37:56;;;;;;;32.42;24.55;;;21.80;99.90;;;;;;4936003;29;20066;-67
2022/07/21 08:40:24;;;;;;;35.80;25.73;;;21.90;99.90;;;;;;4960876;28;20051;-67
2022/07/21 08:42:52;;;;;;;32.30;25.20;;;22.10;99.90;;;;;;4960585;28;20527;-67
2022/07/21 08:45:18;;;;;;;34.95;25.92;;;22.30;99.90;;;;;;4952738;28;20035;-66
2022/07/21 08:47:44;;;;;;;36.85;25.45;;;22.50;99.90;;;;;;4951618;28;20090;-66
2022/07/21 08:50:10;;;;;;;35.83;25.92;;;22.80;99.90;;;;;;4939751;28;20062;-67
2022/07/21 08:52:36;;;;;;;35.22;25.27;;;22.90;99.90;;;;;;4940781;29;20397;-66
2022/07/21 08:55:02;;;;;;;34.65;25.38;;;23.00;99.90;;;;;;4952762;28;20772;-67
2022/07/21 08:57:28;;;;;;;34.30;24.63;;;22.90;99.90;;;;;;4963108;28;20039;-66
2022/07/21 08:59:53;;;;;;;34.92;25.48;;;22.90;99.90;;;;;;4945042;28;20057;-66
2022/07/21 09:02:31;;;;;;;32.05;25.52;;;22.90;99.90;;;;;;4954720;28;20507;-67
2022/07/21 09:04:57;;;;;;;32.20;24.55;;;22.90;99.90;;;;;;4954454;28;20129;-67
2022/07/21 09:07:23;;;;;;;33.25;24.10;;;23.10;99.90;;;;;;4955511;28;20114;-68
2022/07/21 09:10:00;;;;;;;26.52;20.45;;;23.40;99.90;;;;;;4957650;28;20504;-67
2022/07/21 09:12:27;;;;;;;33.30;24.77;;;23.40;99.90;;;;;;4935335;29;20126;-67
2022/07/21 09:15:15;;;;;;;32.50;24.95;;;23.50;99.90;;;;;;4945251;28;20557;-66
2022/07/21 09:17:41;;;;;;;30.48;22.85;;;23.80;99.90;;;;;;4951076;28;20053;-66
2022/07/21 09:20:24;;;;;;;30.58;23.48;;;24.10;99.90;;;;;;4935238;29;20035;-66
2022/07/21 09:23:08;;;;;;;31.35;23.45;;;24.00;99.90;;;;;;4970803;28;20046;-66
2022/07/21 09:25:43;;;;;;;30.38;23.10;;;23.80;99.90;;;;;;4946176;28;20047;-65
2022/07/21 09:28:09;;;;;;;29.00;22.25;;;23.60;99.90;;;;;;4952593;28;20046;-66
2022/07/21 09:30:51;;;;;;;30.40;22.80;;;23.40;99.90;;;;;;4952910;29;20051;-66
2022/07/21 09:33:32;;;;;;;30.02;23.33;;;23.20;99.90;;;;;;4960988;28;20039;-66
2022/07/21 09:36:08;;;;;;;32.20;23.92;;;23.00;99.90;;;;;;4955082;28;20035;-66
2022/07/21 09:38:42;;;;;;;29.98;23.98;;;22.80;99.90;;;;;;4958754;28;20043;-66
2022/07/21 09:41:14;;;;;;;30.48;23.80;;;22.70;99.90;;;;;;4935346;28;20051;-66
2022/07/21 09:43:49;;;;;;;34.45;24.42;;;22.60;99.90;;;;;;4952152;28;20070;-65
2022/07/21 09:46:19;;;;;;;33.92;24.88;;;22.50;99.90;;;;;;4951119;28;20119;-66
2022/07/21 09:48:46;;;;;;;35.10;25.27;;;22.40;99.90;;;;;;4946761;28;20047;-65
2022/07/21 09:51:24;;;;;;;36.67;25.80;;;22.40;99.90;;;;;;4951783;28;20047;-65
2022/07/21 09:53:58;;;;;;;39.35;27.05;;;22.30;99.90;;;;;;4943033;28;20054;-65
2022/07/21 09:56:27;;;;;;;36.40;26.27;;;22.30;99.90;;;;;;4958515;28;20055;-65
2022/07/21 09:58:55;;;;;;;41.30;28.27;;;21.90;99.90;;;;;;4934486;28;20055;-65
2022/07/21 10:01:22;;;;;;;39.10;27.40;;;21.90;99.90;;;;;;4953951;28;20741;-66
2022/07/21 10:03:49;;;;;;;40.80;28.35;;;21.90;99.90;;;;;;4963515;28;20039;-65
2022/07/21 10:06:16;;;;;;;42.42;28.90;;;21.80;99.90;;;;;;4941181;28;20070;-66
2022/07/21 10:08:43;;;;;;;39.53;27.33;;;21.80;99.90;;;;;;4948885;28;20047;-66
2022/07/21 10:11:10;;;;;;;40.05;28.67;;;21.90;99.90;;;;;;4950694;28;20043;-66
2022/07/21 10:13:37;;;;;;;42.65;28.30;;;21.90;99.90;;;;;;4951570;28;20038;-65
2022/07/21 10:16:04;;;;;;;41.95;28.52;;;22.00;99.90;;;;;;4955990;28;20121;-65
2022/07/21 10:18:35;;;;;;;39.28;27.70;;;22.10;99.90;;;;;;4935279;29;20083;-65
2022/07/21 10:21:37;;;;;;;36.60;26.58;;;22.20;99.90;;;;;;4950039;28;20057;-66
2022/07/21 10:24:04;;;;;;;34.67;24.92;;;22.30;99.90;;;;;;4953657;28;20129;-66
2022/07/21 10:26:30;;;;;;;37.75;26.15;;;22.50;99.90;;;;;;4941757;29;20042;-66
2022/07/21 10:28:56;;;;;;;38.47;25.90;;;22.50;99.90;;;;;;4952729;28;20579;-66
2022/07/21 10:31:24;;;;;;;35.10;26.63;;;22.60;99.90;;;;;;4941972;28;20313;-66
2022/07/21 10:33:49;;;;;;;39.38;26.27;;;22.60;99.90;;;;;;4939919;28;20058;-67
2022/07/21 10:36:27;;;;;;;36.15;26.08;;;22.80;99.90;;;;;;4941964;28;20043;-66
2022/07/21 10:39:17;;;;;;;31.30;22.88;;;22.80;99.90;;;;;;4951891;28;20043;-65
2022/07/21 10:41:44;;;;;;;33.35;23.98;;;22.90;99.90;;;;;;4945808;28;20077;-66
2022/07/21 10:44:28;;;;;;;35.53;25.10;;;22.90;99.90;;;;;;4950530;28;20051;-66
2022/07/21 10:47:30;;;;;;;35.95;25.67;;;23.00;99.90;;;;;;4962916;28;20132;-66
2022/07/21 10:50:01;;;;;;;33.33;22.92;;;23.30;99.90;;;;;;4955428;28;20043;-67
2022/07/21 10:52:39;;;;;;;33.83;24.02;;;23.80;99.90;;;;;;4954281;28;20606;-66
2022/07/21 10:55:13;;;;;;;37.42;24.27;;;23.90;99.90;;;;;;4956540;28;20054;-67
2022/07/21 10:57:43;;;;;;;36.45;24.38;;;24.00;99.90;;;;;;4954839;28;20046;-68
2022/07/21 11:00:20;;;;;;;35.72;25.38;;;24.10;99.90;;;;;;4955048;28;20041;-67
2022/07/21 11:02:48;;;;;;;34.13;25.60;;;24.10;99.90;;;;;;4971623;28;20073;-67
2022/07/21 11:05:14;;;;;;;36.33;26.33;;;24.30;99.90;;;;;;4955870;28;20046;-67
2022/07/21 11:08:16;;;;;;;35.55;26.45;;;24.60;99.90;;;;;;4937851;29;20051;-67
2022/07/21 11:10:52;;;;;;;34.28;25.38;;;24.80;99.90;;;;;;4962986;28;20038;-68
2022/07/21 11:13:22;;;;;;;33.90;26.05;;;24.90;99.90;;;;;;4953946;28;20169;-67
2022/07/21 11:15:47;;;;;;;34.95;25.48;;;24.80;99.90;;;;;;4954021;28;20043;-68
2022/07/21 11:18:21;;;;;;;33.13;25.25;;;24.30;99.90;;;;;;4957069;28;20062;-68
2022/07/21 11:21:10;;;;;;;33.90;25.30;;;24.00;99.90;;;;;;4961730;28;20035;-66
2022/07/21 11:23:37;;;;;;;32.47;24.85;;;23.90;99.90;;;;;;4953475;28;20068;-68
2022/07/21 11:26:03;;;;;;;28.13;24.30;;;23.50;99.90;;;;;;4955166;28;20122;-68
2022/07/21 11:28:29;;;;;;;27.77;23.60;;;23.30;99.90;;;;;;4962639;28;20138;-68
2022/07/21 11:31:07;;;;;;;28.27;25.08;;;22.90;99.90;;;;;;4954235;28;20042;-67
2022/07/21 11:33:36;;;;;;;29.35;23.60;;;22.40;99.90;;;;;;4954850;29;20094;-68
2022/07/21 11:36:03;;;;;;;31.02;24.38;;;22.30;99.90;;;;;;4945558;28;20438;-68
2022/07/21 11:38:28;;;;;;;30.52;24.50;;;22.10;99.90;;;;;;4939607;28;20688;-68
2022/07/21 11:41:11;;;;;;;35.67;25.40;;;22.00;99.90;;;;;;4958433;28;20113;-66
2022/07/21 11:43:41;;;;;;;31.17;24.30;;;22.30;99.90;;;;;;4962680;28;20086;-68
2022/07/21 11:46:07;;;;;;;31.40;24.60;;;22.60;99.90;;;;;;4976015;28;20047;-68
2022/07/21 11:48:33;;;;;;;32.67;23.27;;;22.60;99.90;;;;;;4967294;28;20054;-68
2022/07/21 11:51:02;;;;;;;31.05;23.10;;;22.60;99.90;;;;;;4949123;28;20217;-67
2022/07/21 11:53:29;;;;;;;30.33;22.23;;;22.60;99.90;;;;;;4965860;28;20035;-67
2022/07/21 11:55:54;;;;;;;24.88;20.02;;;22.70;99.90;;;;;;4961320;28;20039;-66
2022/07/21 11:58:20;;;;;;;23.83;17.90;;;22.80;99.90;;;;;;4936121;28;20050;-66
2022/07/21 12:00:47;;;;;;;26.30;18.10;;;22.70;99.90;;;;;;4956352;28;20404;-68
2022/07/21 12:03:13;;;;;;;25.20;17.85;;;22.60;99.90;;;;;;4954356;28;20163;-65
2022/07/21 12:05:42;;;;;;;24.15;18.33;;;22.60;99.90;;;;;;4954568;29;20130;-65
2022/07/21 12:08:08;;;;;;;25.58;18.27;;;22.70;99.90;;;;;;4952061;28;20053;-66
2022/07/21 12:10:34;;;;;;;26.42;19.17;;;22.80;99.90;;;;;;4956946;28;20046;-66
2022/07/21 12:13:05;;;;;;;26.75;17.98;;;22.80;99.90;;;;;;4968930;28;20051;-67
2022/07/21 12:15:33;;;;;;;;;;;23.00;99.90;;;;;;4936793;29;20046;-66
2022/07/21 12:18:02;;;;;;;14.32;11.05;;;23.00;99.90;;;;;;4954344;29;19922;-65
2022/07/21 12:20:29;;;;;;;14.57;10.98;;;23.00;99.90;;;;;;4940707;28;20036;-66
2022/07/21 12:22:56;;;;;;;9.95;7.40;;;22.80;99.90;;;;;;4951438;28;20067;-66
2022/07/21 12:25:39;;;;;;;8.60;6.47;;;22.60;99.90;;;;;;4954389;28;20046;-69
2022/07/21 12:28:06;;;;;;;13.73;10.88;;;22.20;99.90;;;;;;4938096;28;20047;-68
2022/07/21 12:30:46;;;;;;;17.63;13.55;;;21.90;99.90;;;;;;4936440;29;20412;-68
2022/07/21 12:33:14;;;;;;;18.15;13.77;;;21.70;99.90;;;;;;4951090;28;20081;-68